createdAt,value
2023-05-19T00:05:03.658Z,77249.50
2023-05-19T00:12:38.583Z,77259.69
2023-05-19T00:20:14.419Z,77273.97
2023-05-19T00:27:48.302Z,77280.09
2023-05-19T00:35:24.655Z,77282.16
2023-05-19T00:42:58.476Z,77294.41
2023-05-19T00:50:34.467Z,77310.72
2023-05-19T00:58:10.676Z,77318.91
2023-05-19T01:05:45.950Z,77331.16
2023-05-19T01:13:19.861Z,77343.41
2023-05-19T01:21:05.814Z,77347.47
2023-05-19T01:29:13.985Z,77361.78
2023-05-19T01:36:50.381Z,77369.94
2023-05-19T01:44:25.264Z,77392.41
2023-05-19T01:52:00.594Z,77396.47
2023-05-19T01:59:44.800Z,77414.84
2023-05-19T02:07:28.081Z,77423.03
2023-05-19T02:15:07.375Z,77439.38
2023-05-19T02:22:42.913Z,77449.56
2023-05-19T02:30:16.942Z,77455.69
2023-05-19T02:37:52.536Z,77467.94
2023-05-19T02:45:28.618Z,77474.06
2023-05-19T02:53:05.319Z,77488.38
2023-05-19T03:00:39.247Z,77496.53
2023-05-19T03:08:14.632Z,77506.75
2023-05-19T03:15:48.948Z,77514.91
2023-05-19T03:23:24.192Z,77516.94
2023-05-19T03:30:58.032Z,77510.81
2023-05-19T03:38:33.282Z,77514.91
2023-05-19T03:46:07.245Z,77516.94
2023-05-19T03:53:42.542Z,77510.81
2023-05-19T04:01:16.569Z,77514.91
2023-05-19T04:08:51.985Z,77510.81
2023-05-19T04:16:25.954Z,77504.69
2023-05-19T04:24:01.268Z,77490.41
2023-05-19T04:31:36.098Z,77484.28
2023-05-19T04:39:12.365Z,77472.03
2023-05-19T04:46:46.265Z,77455.69
2023-05-19T04:54:21.573Z,77433.25
2023-05-19T05:01:56.279Z,77408.72
2023-05-19T05:09:31.698Z,77371.97
2023-05-19T05:17:06.090Z,77339.31
2023-05-19T05:24:42.073Z,77306.66
2023-05-19T05:32:17.213Z,77280.09
2023-05-19T05:39:52.798Z,77243.38
2023-05-19T05:47:27.608Z,77237.25
2023-05-19T05:55:03.745Z,77225.00
2023-05-19T06:02:38.296Z,77204.56
2023-05-19T06:10:13.850Z,77194.34
2023-05-19T06:17:47.794Z,77180.06
2023-05-19T06:25:24.755Z,77143.31
2023-05-19T06:32:59.125Z,77114.75
2023-05-19T06:40:34.488Z,77078.00
2023-05-19T06:48:08.546Z,77057.56
2023-05-19T06:55:57.338Z,77039.19
2023-05-19T07:03:32.503Z,77006.53
2023-05-19T07:11:07.863Z,76933.03
2023-05-19T07:18:41.761Z,76914.69
2023-05-19T07:26:17.076Z,76855.47
2023-05-19T07:33:53.020Z,76796.28
2023-05-19T07:41:29.770Z,76730.94
2023-05-19T07:49:05.550Z,76671.75
2023-05-19T08:05:34.014Z,76592.13
2023-05-19T08:13:07.880Z,76481.91
2023-05-19T08:20:43.149Z,76465.59
2023-05-19T08:28:17.038Z,76424.75
2023-05-19T08:35:52.416Z,76445.19
2023-05-19T08:43:26.613Z,76443.13
2023-05-19T08:51:11.033Z,76394.16
2023-05-19T08:58:46.017Z,76434.97
2023-05-19T09:06:21.336Z,76424.75
2023-05-19T09:13:55.184Z,76412.53
2023-05-19T09:21:32.095Z,76398.22
2023-05-19T09:29:12.449Z,76381.91
2023-05-19T09:36:50.703Z,76355.38
2023-05-19T09:44:28.979Z,76292.09
2023-05-19T09:52:22.509Z,76126.78
2023-05-19T09:59:58.035Z,76053.28
2023-05-19T10:07:34.108Z,75983.91
2023-05-19T10:15:11.406Z,76094.13
2023-05-19T10:22:48.630Z,76134.94
2023-05-19T10:30:28.022Z,76126.78
2023-05-19T10:38:14.901Z,76139.03
2023-05-19T10:45:50.241Z,76143.09
2023-05-19T10:53:32.459Z,76190.03
2023-05-19T11:01:09.945Z,76188.00
2023-05-19T11:08:45.341Z,76185.97
2023-05-19T11:16:20.859Z,76194.13
2023-05-19T11:23:58.071Z,76177.78
2023-05-19T11:31:33.879Z,76200.25
2023-05-19T11:39:10.592Z,76196.16
2023-05-19T11:46:44.838Z,76192.09
2023-05-19T11:54:20.278Z,76157.38
2023-05-19T12:01:54.144Z,76161.47
2023-05-19T12:09:30.926Z,76126.78
2023-05-19T12:17:12.234Z,76132.91
2023-05-19T12:24:49.076Z,76122.69
2023-05-19T12:32:25.389Z,76116.56
2023-05-19T12:40:30.639Z,76077.78
2023-05-19T12:48:06.606Z,76061.47
2023-05-19T12:55:43.400Z,76079.81
2023-05-19T13:03:18.774Z,76110.44
2023-05-19T13:10:55.994Z,76061.47
2023-05-19T13:18:32.250Z,76098.19
2023-05-19T13:26:07.851Z,76120.66
2023-05-19T13:33:41.847Z,76132.91
2023-05-19T13:41:18.508Z,76114.53
2023-05-19T13:48:52.556Z,76114.53
2023-05-19T13:56:28.310Z,76122.69
2023-05-19T14:04:02.748Z,76130.84
2023-05-19T14:11:38.510Z,76100.25
2023-05-19T14:27:05.451Z,76112.50
2023-05-19T14:34:39.392Z,76053.28
2023-05-19T14:42:14.970Z,76104.31
2023-05-19T14:49:48.949Z,76063.50
2023-05-19T15:05:16.502Z,76047.19
2023-05-19T15:12:52.090Z,76063.50
2023-05-19T15:20:27.443Z,76081.88
2023-05-19T15:28:04.932Z,76075.75
2023-05-19T15:35:38.903Z,76059.41
2023-05-19T15:43:14.472Z,76116.56
2023-05-19T15:50:54.724Z,76102.28
2023-05-19T15:58:30.177Z,76120.66
2023-05-19T16:06:04.235Z,76065.53
2023-05-19T16:13:39.737Z,76106.38
2023-05-19T16:21:13.742Z,76126.78
2023-05-19T16:28:48.945Z,76153.31
2023-05-19T16:36:23.533Z,76122.69
2023-05-19T16:43:58.992Z,76100.25
2023-05-19T16:51:33.002Z,76124.72
2023-05-19T16:59:10.108Z,76206.38
2023-05-19T17:06:46.916Z,76222.69
2023-05-19T17:14:22.436Z,76239.03
2023-05-19T17:21:56.378Z,76253.31
2023-05-19T17:29:31.674Z,76263.53
2023-05-19T17:44:58.492Z,76288.00
2023-05-19T17:52:33.138Z,76288.00
2023-05-19T18:00:10.663Z,76288.00
2023-05-19T18:07:45.587Z,76302.31
2023-05-19T18:15:21.025Z,76314.53
2023-05-19T18:22:54.920Z,76334.97
2023-05-19T18:30:30.181Z,76361.50
2023-05-19T18:38:04.325Z,76379.84
2023-05-19T18:45:39.847Z,76390.06
2023-05-19T18:53:13.614Z,76410.47
2023-05-19T19:00:48.798Z,76426.81
2023-05-19T19:08:22.692Z,76447.22
2023-05-19T19:15:57.948Z,76465.59
2023-05-19T19:23:31.726Z,76488.03
2023-05-19T19:31:07.064Z,76504.38
2023-05-19T19:38:40.976Z,76514.56
2023-05-19T19:46:16.183Z,76530.91
2023-05-19T19:53:50.201Z,76545.19
2023-05-19T20:01:27.438Z,76557.44
2023-05-19T20:09:01.430Z,76559.47
2023-05-19T20:16:36.615Z,76600.31
2023-05-19T20:24:10.357Z,76604.38
2023-05-19T20:31:46.557Z,76628.88
2023-05-19T20:39:20.661Z,76637.06
2023-05-19T20:46:55.805Z,76649.28
2023-05-19T20:54:29.705Z,76669.72
2023-05-19T21:02:06.218Z,76673.78
2023-05-19T21:09:40.188Z,76686.03
2023-05-19T21:17:15.376Z,76686.03
2023-05-19T21:24:49.274Z,76690.13
2023-05-19T21:32:24.682Z,76706.44
2023-05-19T21:39:58.804Z,76733.00
2023-05-19T21:47:34.078Z,76741.16
2023-05-19T21:55:09.876Z,76759.53
2023-05-19T22:02:45.231Z,76788.09
2023-05-19T22:10:19.612Z,76796.28
2023-05-19T22:17:54.892Z,76792.19
2023-05-19T22:25:28.791Z,76798.31
2023-05-19T22:33:03.938Z,76820.78
2023-05-19T22:40:37.733Z,76828.94
2023-05-19T22:48:12.783Z,76833.00
2023-05-19T22:55:46.511Z,76845.28
2023-05-19T23:03:21.830Z,76869.75
2023-05-19T23:11:00.847Z,76894.25
2023-05-19T23:18:36.122Z,76914.69
2023-05-19T23:26:09.999Z,76924.88
2023-05-19T23:33:45.177Z,76945.28
2023-05-19T23:41:18.888Z,76931.00
2023-05-19T23:48:54.027Z,76951.41
2023-05-19T23:56:27.864Z,76969.78
